Time;durP1;ratioP1;P1;durP2;ratioP2;P2;SDS_P1;SDS_P2;PMS_P1;PMS_P2;Temp;Humidity;BMP_temperature;BMP_pressure;BME280_temperature;BME280_humidity;BME280_pressure;Samples;Min_cycle;Max_cycle;Signal;HPM_P1;HPM_P2
2021/11/21 00:01:21;;;;;;;99.63;54.88;;;;;;;;;;5053460;28;20017;-53
2021/11/21 00:03:48;;;;;;;102.50;55.40;;;;;;;;;;5066120;28;20459;-55
2021/11/21 00:06:18;;;;;;;92.30;50.00;;;;;;;;;;5053941;28;20031;-54
2021/11/21 00:08:44;;;;;;;90.13;51.28;;;;;;;;;;5054179;28;20029;-54
2021/11/21 00:11:10;;;;;;;115.10;65.53;;;;;;;;;;5054204;28;20017;-56
2021/11/21 00:13:37;;;;;;;101.38;56.92;;;;;;;;;;5054145;28;20039;-56
2021/11/21 00:16:04;;;;;;;83.75;48.80;;;;;;;;;;5054002;28;20021;-54
2021/11/21 00:18:30;;;;;;;92.45;51.92;;;;;;;;;;5054223;28;20025;-57
2021/11/21 00:20:57;;;;;;;79.35;46.03;;;;;;;;;;5054003;28;20033;-55
2021/11/21 00:23:23;;;;;;;86.40;49.97;;;;;;;;;;5054128;28;20032;-57
2021/11/21 00:25:49;;;;;;;96.43;54.45;;;;;;;;;;5053974;28;20021;-57
2021/11/21 00:28:15;;;;;;;125.25;70.03;;;;;;;;;;5053874;28;20021;-52
2021/11/21 00:30:41;;;;;;;132.82;73.07;;;;;;;;;;5053728;28;20028;-53
2021/11/21 00:33:08;;;;;;;182.73;105.18;;;;;;;;;;5041226;28;20025;-53
2021/11/21 00:35:35;;;;;;;162.73;97.03;;;;;;;;;;5025372;28;20048;-53
2021/11/21 00:38:01;;;;;;;116.45;67.35;;;;;;;;;;5026319;28;20450;-54
2021/11/21 00:40:27;;;;;;;113.57;67.20;;;;;;;;;;5026601;28;21365;-54
2021/11/21 00:42:57;;;;;;;116.65;68.28;;;;;;;;;;5026262;28;20028;-53
2021/11/21 00:45:23;;;;;;;106.25;63.25;;;;;;;;;;5026180;28;20524;-53
2021/11/21 00:47:49;;;;;;;103.18;59.30;;;;;;;;;;5026041;28;20033;-53
2021/11/21 00:50:22;;;;;;;97.40;57.78;;;;;;;;;;5026422;28;20025;-54
2021/11/21 00:52:49;;;;;;;81.22;49.47;;;;;;;;;;5026489;28;20052;-55
2021/11/21 00:55:20;;;;;;;86.30;49.97;;;;;;;;;;5025754;28;20600;-55
2021/11/21 00:57:46;;;;;;;87.28;50.60;;;;;;;;;;5026202;28;20029;-55
2021/11/21 01:00:14;;;;;;;85.43;49.60;;;;;;;;;;5025966;28;20040;-55
2021/11/21 01:02:41;;;;;;;92.43;54.45;;;;;;;;;;5026652;28;20040;-53
2021/11/21 01:05:12;;;;;;;83.70;49.17;;;;;;;;;;5025855;28;20018;-54
2021/11/21 01:07:39;;;;;;;84.32;49.67;;;;;;;;;;5026662;28;20028;-53
2021/11/21 01:10:09;;;;;;;81.00;47.22;;;;;;;;;;5026126;28;20049;-55
2021/11/21 01:12:36;;;;;;;82.40;48.40;;;;;;;;;;5025900;28;20033;-54
2021/11/21 01:15:08;;;;;;;91.50;49.78;;;;;;;;;;5026055;28;20028;-53
2021/11/21 01:17:34;;;;;;;80.43;49.40;;;;;;;;;;5025982;28;20026;-55
2021/11/21 01:20:05;;;;;;;86.40;49.80;;;;;;;;;;5025824;28;20040;-53
2021/11/21 01:22:33;;;;;;;86.32;48.38;;;;;;;;;;5029556;28;20029;-56
2021/11/21 01:25:00;;;;;;;79.53;47.38;;;;;;;;;;5053139;28;20029;-56
2021/11/21 01:27:26;;;;;;;79.05;47.17;;;;;;;;;;5053096;28;20116;-56
2021/11/21 01:29:52;;;;;;;75.20;46.13;;;;;;;;;;5053199;28;20485;-57
2021/11/21 01:32:19;;;;;;;79.43;47.53;;;;;;;;;;5052996;28;20092;-55
2021/11/21 01:34:46;;;;;;;76.38;46.92;;;;;;;;;;5053177;28;20388;-56
2021/11/21 01:37:13;;;;;;;73.85;43.92;;;;;;;;;;5055954;28;20027;-57
2021/11/21 01:39:41;;;;;;;81.80;46.90;;;;;;;;;;5057172;28;20385;-56
2021/11/21 01:42:10;;;;;;;75.72;45.58;;;;;;;;;;5057079;28;20028;-56
2021/11/21 01:44:36;;;;;;;87.28;53.63;;;;;;;;;;5057096;28;20397;-54
2021/11/21 01:47:05;;;;;;;86.22;52.47;;;;;;;;;;5056870;28;20029;-55
2021/11/21 01:49:31;;;;;;;81.00;49.97;;;;;;;;;;5056973;28;20033;-55
2021/11/21 01:51:57;;;;;;;87.68;50.47;;;;;;;;;;5056896;28;20049;-56
2021/11/21 01:54:23;;;;;;;74.53;46.50;;;;;;;;;;5056958;28;20028;-57
2021/11/21 01:56:49;;;;;;;65.75;39.80;;;;;;;;;;5056785;28;20496;-54
2021/11/21 01:59:16;;;;;;;71.68;41.08;;;;;;;;;;5056763;28;20021;-55
2021/11/21 02:01:42;;;;;;;73.10;44.45;;;;;;;;;;5056892;28;20025;-56
2021/11/21 02:04:08;;;;;;;69.15;41.72;;;;;;;;;;5056892;28;20024;-53
2021/11/21 02:06:34;;;;;;;68.65;40.72;;;;;;;;;;5056794;28;20024;-57
2021/11/21 02:09:01;;;;;;;67.68;43.05;;;;;;;;;;5056687;28;20542;-56
2021/11/21 02:11:27;;;;;;;65.32;40.95;;;;;;;;;;5056495;28;20082;-54
2021/11/21 02:13:54;;;;;;;69.20;42.47;;;;;;;;;;5056548;28;20112;-55
2021/11/21 02:16:21;;;;;;;70.28;41.17;;;;;;;;;;5056334;28;20466;-55
2021/11/21 02:18:48;;;;;;;72.05;42.15;;;;;;;;;;5056443;28;20461;-54
2021/11/21 02:21:15;;;;;;;67.85;42.20;;;;;;;;;;5056285;28;20029;-54
2021/11/21 02:23:41;;;;;;;62.55;38.70;;;;;;;;;;5056279;28;20057;-56
2021/11/21 02:26:07;;;;;;;65.00;41.47;;;;;;;;;;5056262;28;20025;-56
2021/11/21 02:28:37;;;;;;;66.70;40.85;;;;;;;;;;5055992;28;20021;-53
2021/11/21 02:31:03;;;;;;;57.90;35.15;;;;;;;;;;5056049;28;20029;-56
2021/11/21 02:33:30;;;;;;;63.65;38.33;;;;;;;;;;5056204;28;20040;-55
2021/11/21 02:35:57;;;;;;;57.58;40.97;;;;;;;;;;5056170;28;20031;-56
2021/11/21 02:38:27;;;;;;;50.97;33.90;;;;;;;;;;5056123;28;20031;-55
2021/11/21 02:40:54;;;;;;;60.05;39.40;;;;;;;;;;5055936;28;20025;-55
2021/11/21 02:43:21;;;;;;;46.70;30.10;;;;;;;;;;5056217;28;20025;-56
2021/11/21 02:45:48;;;;;;;50.17;31.60;;;;;;;;;;5055845;28;20021;-57
2021/11/21 02:48:15;;;;;;;60.40;36.05;;;;;;;;;;5055756;28;20021;-56
2021/11/21 02:50:42;;;;;;;61.15;37.90;;;;;;;;;;5054447;28;20067;-53
2021/11/21 02:53:08;;;;;;;55.53;34.58;;;;;;;;;;5055528;28;20060;-55
2021/11/21 02:55:34;;;;;;;60.95;37.00;;;;;;;;;;5055742;28;20420;-56
2021/11/21 02:58:01;;;;;;;61.05;36.92;;;;;;;;;;5055586;28;20021;-56
2021/11/21 03:00:29;;;;;;;57.58;37.03;;;;;;;;;;5055603;28;20045;-54
2021/11/21 03:02:55;;;;;;;68.18;43.72;;;;;;;;;;5055505;28;20020;-57
2021/11/21 03:05:21;;;;;;;73.55;45.65;;;;;;;;;;5055687;28;20048;-54
2021/11/21 03:07:51;;;;;;;63.97;41.72;;;;;;;;;;5055434;28;20052;-54
2021/11/21 03:10:21;;;;;;;66.97;42.05;;;;;;;;;;5055415;28;20044;-55
2021/11/21 03:12:48;;;;;;;75.63;46.25;;;;;;;;;;5055824;28;20488;-55
2021/11/21 03:15:15;;;;;;;72.95;45.17;;;;;;;;;;5055300;28;20036;-54
2021/11/21 03:17:43;;;;;;;75.25;44.38;;;;;;;;;;5055273;28;20544;-56
2021/11/21 03:20:10;;;;;;;84.72;50.05;;;;;;;;;;5055363;28;20021;-56
2021/11/21 03:22:36;;;;;;;88.53;50.97;;;;;;;;;;5055246;28;20033;-55
2021/11/21 03:25:02;;;;;;;80.88;47.78;;;;;;;;;;5055070;28;20028;-54
2021/11/21 03:27:28;;;;;;;88.88;48.60;;;;;;;;;;5055177;28;20104;-55
2021/11/21 03:29:54;;;;;;;98.95;51.65;;;;;;;;;;5054953;28;20037;-56
2021/11/21 03:32:21;;;;;;;82.32;46.20;;;;;;;;;;5053976;28;20112;-56
2021/11/21 03:34:47;;;;;;;78.43;45.38;;;;;;;;;;5054971;28;20477;-56
2021/11/21 03:37:18;;;;;;;77.63;41.05;;;;;;;;;;5055070;28;20049;-56
2021/11/21 03:39:44;;;;;;;67.68;40.30;;;;;;;;;;5054958;28;20485;-55
2021/11/21 03:42:10;;;;;;;75.97;42.17;;;;;;;;;;5054828;28;20033;-55
2021/11/21 03:44:36;;;;;;;69.22;38.90;;;;;;;;;;5055051;28;20021;-55
2021/11/21 03:47:02;;;;;;;65.25;39.13;;;;;;;;;;5054781;28;20021;-53
2021/11/21 03:49:31;;;;;;;66.57;38.65;;;;;;;;;;5054771;28;20048;-55
2021/11/21 03:51:57;;;;;;;60.60;37.00;;;;;;;;;;5054511;28;20043;-55
2021/11/21 03:54:24;;;;;;;66.43;38.80;;;;;;;;;;5055117;28;20112;-55
2021/11/21 03:56:50;;;;;;;62.67;37.83;;;;;;;;;;5054482;28;20025;-54
2021/11/21 03:59:16;;;;;;;68.80;42.10;;;;;;;;;;5054053;28;20029;-56
2021/11/21 04:01:42;;;;;;;70.70;45.58;;;;;;;;;;5054353;28;20013;-55
2021/11/21 04:04:10;;;;;;;55.45;35.22;;;;;;;;;;5054296;28;20028;-56
2021/11/21 04:06:36;;;;;;;69.03;42.63;;;;;;;;;;5054409;28;20104;-56
2021/11/21 04:09:02;;;;;;;40.25;26.20;;;;;;;;;;5054231;28;20029;-56
2021/11/21 04:11:30;;;;;;;35.75;23.83;;;;;;;;;;5054182;28;20033;-56
2021/11/21 04:13:56;;;;;;;42.92;25.13;;;;;;;;;;5054580;28;20036;-56
2021/11/21 04:16:25;;;;;;;36.53;23.05;;;;;;;;;;5054161;28;20025;-55
2021/11/21 04:18:51;;;;;;;39.60;24.60;;;;;;;;;;5054211;28;20065;-56
2021/11/21 04:21:17;;;;;;;39.30;25.52;;;;;;;;;;5053959;28;20143;-53
2021/11/21 04:23:44;;;;;;;40.72;25.38;;;;;;;;;;5054007;28;20051;-55
2021/11/21 04:26:10;;;;;;;41.50;26.13;;;;;;;;;;5053860;28;20024;-55
2021/11/21 04:28:36;;;;;;;46.42;26.77;;;;;;;;;;5053861;28;20039;-55
2021/11/21 04:31:05;;;;;;;50.60;31.00;;;;;;;;;;5054170;28;20389;-54
2021/11/21 04:33:32;;;;;;;49.20;29.75;;;;;;;;;;5053813;28;20013;-58
2021/11/21 04:35:58;;;;;;;50.25;28.80;;;;;;;;;;5053720;28;20173;-57
2021/11/21 04:38:24;;;;;;;50.03;29.88;;;;;;;;;;5053701;28;20017;-57
2021/11/21 04:40:52;;;;;;;72.18;35.30;;;;;;;;;;5053582;28;20021;-56
2021/11/21 04:43:19;;;;;;;77.35;39.55;;;;;;;;;;5053688;28;20519;-56
2021/11/21 04:45:45;;;;;;;70.13;36.53;;;;;;;;;;5052179;28;20396;-58
2021/11/21 04:48:11;;;;;;;58.00;29.58;;;;;;;;;;5053399;28;20052;-57
2021/11/21 04:50:37;;;;;;;65.53;32.42;;;;;;;;;;5053370;28;20025;-56
2021/11/21 04:53:05;;;;;;;91.40;40.88;;;;;;;;;;5053327;28;20047;-57
2021/11/21 04:55:34;;;;;;;147.32;37.67;;;;;;;;;;5053429;28;20020;-53
2021/11/21 04:58:00;;;;;;;100.45;38.58;;;;;;;;;;5053330;28;20052;-56
2021/11/21 05:00:28;;;;;;;90.97;34.08;;;;;;;;;;5053342;28;20029;-56
2021/11/21 05:02:54;;;;;;;84.70;35.17;;;;;;;;;;5053258;28;20017;-55
2021/11/21 05:05:21;;;;;;;71.20;32.00;;;;;;;;;;5053235;28;20029;-54
2021/11/21 05:07:48;;;;;;;86.10;35.28;;;;;;;;;;5053291;28;20477;-57
2021/11/21 05:10:15;;;;;;;47.85;23.50;;;;;;;;;;5051166;28;20052;-54
2021/11/21 05:12:41;;;;;;;64.00;26.58;;;;;;;;;;5052900;28;20068;-57
2021/11/21 05:15:09;;;;;;;203.18;25.92;;;;;;;;;;5053264;28;20074;-57
2021/11/21 05:17:35;;;;;;;183.20;30.30;;;;;;;;;;5053044;28;20021;-56
2021/11/21 05:20:01;;;;;;;76.32;27.75;;;;;;;;;;5053078;28;20028;-53
2021/11/21 05:22:28;;;;;;;69.07;29.30;;;;;;;;;;5053044;28;20056;-56
2021/11/21 05:24:55;;;;;;;52.00;29.70;;;;;;;;;;5052978;28;20021;-57
2021/11/21 05:27:23;;;;;;;98.43;26.15;;;;;;;;;;5053417;28;20373;-56
2021/11/21 05:29:49;;;;;;;112.32;25.55;;;;;;;;;;5052857;28;20060;-52
2021/11/21 05:32:15;;;;;;;49.95;25.20;;;;;;;;;;5052965;28;20021;-56
2021/11/21 05:34:42;;;;;;;151.38;29.50;;;;;;;;;;5052965;28;20036;-57
2021/11/21 05:37:08;;;;;;;84.35;28.83;;;;;;;;;;5053083;28;20021;-56
2021/11/21 05:39:34;;;;;;;66.15;28.17;;;;;;;;;;5052848;28;20031;-54
2021/11/21 05:42:00;;;;;;;75.55;32.45;;;;;;;;;;5053307;28;20021;-54
2021/11/21 05:44:26;;;;;;;75.60;29.48;;;;;;;;;;5052819;28;20033;-55
2021/11/21 05:46:52;;;;;;;62.08;32.97;;;;;;;;;;5052955;28;20024;-55
2021/11/21 05:49:21;;;;;;;53.35;30.95;;;;;;;;;;5052770;28;20037;-54
2021/11/21 05:51:47;;;;;;;57.97;33.38;;;;;;;;;;5052658;28;20056;-53
2021/11/21 05:54:15;;;;;;;54.80;32.08;;;;;;;;;;5052714;28;20032;-55
2021/11/21 05:56:42;;;;;;;60.88;33.30;;;;;;;;;;5052903;28;20028;-55
2021/11/21 05:59:08;;;;;;;54.83;31.90;;;;;;;;;;5052822;28;20028;-57
2021/11/21 06:01:34;;;;;;;56.55;31.55;;;;;;;;;;5052924;28;20025;-56
2021/11/21 06:04:00;;;;;;;73.57;32.95;;;;;;;;;;5052626;28;20074;-56
2021/11/21 06:06:26;;;;;;;73.18;36.70;;;;;;;;;;5052726;28;20029;-56
2021/11/21 06:08:52;;;;;;;96.97;39.60;;;;;;;;;;5052576;28;20025;-56
2021/11/21 06:11:19;;;;;;;81.65;38.65;;;;;;;;;;5052465;28;20029;-52
2021/11/21 06:13:45;;;;;;;70.22;36.72;;;;;;;;;;5052626;28;20021;-56
2021/11/21 06:16:13;;;;;;;85.20;42.78;;;;;;;;;;5052765;28;20420;-54
2021/11/21 06:18:39;;;;;;;54.72;32.70;;;;;;;;;;5052464;28;20021;-55
2021/11/21 06:21:06;;;;;;;52.33;31.60;;;;;;;;;;5052389;28;20021;-52
2021/11/21 06:23:34;;;;;;;52.95;30.48;;;;;;;;;;5055577;28;20389;-56
2021/11/21 06:26:00;;;;;;;47.92;28.45;;;;;;;;;;5056440;28;20074;-52
2021/11/21 06:28:26;;;;;;;43.38;27.15;;;;;;;;;;5056325;28;20056;-52
2021/11/21 06:30:53;;;;;;;44.15;27.65;;;;;;;;;;5056057;28;20029;-52
2021/11/21 06:33:19;;;;;;;49.30;29.98;;;;;;;;;;5056394;28;20031;-55
2021/11/21 06:35:46;;;;;;;48.65;29.55;;;;;;;;;;5056145;28;20033;-55
2021/11/21 06:38:12;;;;;;;45.85;28.63;;;;;;;;;;5056021;28;20069;-56
2021/11/21 06:40:38;;;;;;;54.35;28.88;;;;;;;;;;5055876;28;20416;-56
2021/11/21 06:43:04;;;;;;;38.55;26.42;;;;;;;;;;5055882;28;20025;-58
2021/11/21 06:45:31;;;;;;;40.95;27.33;;;;;;;;;;5055906;28;20021;-56
2021/11/21 06:47:57;;;;;;;42.50;26.30;;;;;;;;;;5055757;28;20428;-56
2021/11/21 06:50:23;;;;;;;46.15;26.77;;;;;;;;;;5055642;28;20079;-56
2021/11/21 06:52:49;;;;;;;44.08;28.83;;;;;;;;;;5055635;28;20103;-57
2021/11/21 06:55:19;;;;;;;49.08;31.90;;;;;;;;;;5055619;28;20052;-57
2021/11/21 06:57:45;;;;;;;55.53;32.92;;;;;;;;;;5055776;28;20465;-57
2021/11/21 07:00:13;;;;;;;60.47;36.55;;;;;;;;;;5055847;28;20028;-57
2021/11/21 07:02:39;;;;;;;62.67;37.25;;;;;;;;;;5055498;28;20469;-57
2021/11/21 07:05:05;;;;;;;47.95;31.23;;;;;;;;;;5055642;28;20025;-56
2021/11/21 07:07:32;;;;;;;49.60;33.13;;;;;;;;;;5055572;28;20104;-56
2021/11/21 07:09:58;;;;;;;47.83;32.47;;;;;;;;;;5055405;28;20037;-58
2021/11/21 07:12:24;;;;;;;49.17;30.40;;;;;;;;;;5055700;28;20116;-57
2021/11/21 07:14:50;;;;;;;54.00;34.58;;;;;;;;;;5055415;28;20477;-55
2021/11/21 07:17:16;;;;;;;52.50;33.35;;;;;;;;;;5055202;28;20025;-54
2021/11/21 07:19:43;;;;;;;55.40;35.83;;;;;;;;;;5055122;28;20032;-59
2021/11/21 07:22:12;;;;;;;49.47;32.22;;;;;;;;;;5055587;28;20025;-53
2021/11/21 07:24:38;;;;;;;49.25;33.70;;;;;;;;;;5055096;28;20025;-58
2021/11/21 07:27:04;;;;;;;49.47;31.77;;;;;;;;;;5055298;28;20029;-58
2021/11/21 07:29:30;;;;;;;43.25;29.48;;;;;;;;;;5055147;28;20170;-57
2021/11/21 07:32:00;;;;;;;49.58;33.17;;;;;;;;;;5055091;28;20029;-56
2021/11/21 07:34:29;;;;;;;49.15;30.80;;;;;;;;;;5053967;28;20504;-56
2021/11/21 07:36:55;;;;;;;49.45;31.50;;;;;;;;;;5054753;28;20413;-56
2021/11/21 07:39:22;;;;;;;50.80;33.05;;;;;;;;;;5054933;28;20078;-59
2021/11/21 07:41:48;;;;;;;52.55;33.88;;;;;;;;;;5055295;28;20025;-56
2021/11/21 07:44:15;;;;;;;43.92;30.10;;;;;;;;;;5054710;28;20075;-58
2021/11/21 07:46:41;;;;;;;48.92;31.88;;;;;;;;;;5054094;28;20046;-58
2021/11/21 07:49:07;;;;;;;39.92;27.08;;;;;;;;;;5053069;28;20035;-56
2021/11/21 07:51:34;;;;;;;40.30;27.85;;;;;;;;;;5050300;28;20041;-54
2021/11/21 07:54:00;;;;;;;38.60;24.40;;;;;;;;;;5053733;28;20025;-56
2021/11/21 07:56:26;;;;;;;42.45;27.10;;;;;;;;;;5045979;28;20567;-53
2021/11/21 07:58:52;;;;;;;47.97;29.55;;;;;;;;;;5026618;28;20025;-53
2021/11/21 08:01:19;;;;;;;57.22;34.83;;;;;;;;;;5023266;28;20132;-54
2021/11/21 08:03:45;;;;;;;45.08;28.38;;;;;;;;;;5023407;28;20350;-55
2021/11/21 08:06:12;;;;;;;58.15;29.17;;;;;;;;;;5023035;28;20018;-56
2021/11/21 08:08:38;;;;;;;30.08;21.20;;;;;;;;;;5023075;28;20515;-52
2021/11/21 08:11:07;;;;;;;31.10;22.10;;;;;;;;;;5022997;28;20397;-53
2021/11/21 08:13:33;;;;;;;32.92;21.33;;;;;;;;;;5022920;28;20096;-51
2021/11/21 08:16:00;;;;;;;35.08;21.48;;;;;;;;;;5026942;28;20020;-57
2021/11/21 08:18:26;;;;;;;28.73;20.77;;;;;;;;;;5052631;28;20449;-57
2021/11/21 08:20:57;;;;;;;31.83;21.08;;;;;;;;;;5052891;28;20043;-58
2021/11/21 08:23:24;;;;;;;32.00;21.58;;;;;;;;;;5054064;28;20076;-56
2021/11/21 08:25:51;;;;;;;31.25;20.98;;;;;;;;;;5054081;28;20017;-56
2021/11/21 08:28:17;;;;;;;29.65;22.05;;;;;;;;;;5054272;28;20119;-57
2021/11/21 08:30:43;;;;;;;30.55;21.30;;;;;;;;;;5053818;28;20033;-57
2021/11/21 08:33:16;;;;;;;30.80;21.80;;;;;;;;;;5053799;28;20028;-57
2021/11/21 08:35:42;;;;;;;30.00;21.65;;;;;;;;;;5053725;28;20029;-52
2021/11/21 08:38:08;;;;;;;31.00;22.38;;;;;;;;;;5053734;28;20078;-52
2021/11/21 08:40:35;;;;;;;34.13;22.40;;;;;;;;;;5053979;28;20113;-56
2021/11/21 08:43:01;;;;;;;39.17;25.02;;;;;;;;;;5053951;28;20131;-53
2021/11/21 08:45:29;;;;;;;38.33;24.65;;;;;;;;;;5053458;28;20036;-58
2021/11/21 08:47:56;;;;;;;37.08;24.45;;;;;;;;;;5053513;28;20370;-56
2021/11/21 08:50:22;;;;;;;36.83;23.73;;;;;;;;;;5053483;28;20064;-57
2021/11/21 08:52:48;;;;;;;35.90;23.42;;;;;;;;;;5053360;28;20532;-53
2021/11/21 08:55:15;;;;;;;35.60;23.70;;;;;;;;;;5053326;28;20465;-52
2021/11/21 08:57:42;;;;;;;32.38;22.85;;;;;;;;;;5053423;28;20016;-56
2021/11/21 09:00:09;;;;;;;31.13;22.63;;;;;;;;;;5053430;28;20029;-57
2021/11/21 09:02:36;;;;;;;30.83;21.27;;;;;;;;;;5053425;28;20049;-57
2021/11/21 09:05:06;;;;;;;24.42;18.77;;;;;;;;;;5053423;28;20089;-57
2021/11/21 09:07:33;;;;;;;31.98;22.73;;;;;;;;;;5053441;28;20021;-55
2021/11/21 09:09:59;;;;;;;38.78;29.45;;;;;;;;;;5053194;28;20466;-57
2021/11/21 09:12:25;;;;;;;53.50;39.80;;;;;;;;;;5053148;28;20028;-58
2021/11/21 09:14:53;;;;;;;31.40;26.15;;;;;;;;;;5053437;28;20113;-57
2021/11/21 09:17:19;;;;;;;28.13;17.83;;;;;;;;;;5053208;28;20033;-56
2021/11/21 09:19:45;;;;;;;66.93;52.28;;;;;;;;;;5051680;28;20033;-56
2021/11/21 09:22:11;;;;;;;69.03;61.67;;;;;;;;;;5053320;28;20439;-57
2021/11/21 09:24:40;;;;;;;32.05;22.58;;;;;;;;;;5053121;28;20086;-56
2021/11/21 09:27:07;;;;;;;25.55;18.92;;;;;;;;;;5053437;28;20018;-57
2021/11/21 09:29:33;;;;;;;22.55;17.70;;;;;;;;;;5053137;28;20501;-53
2021/11/21 09:32:00;;;;;;;43.97;25.13;;;;;;;;;;5052049;28;20405;-57
2021/11/21 09:34:26;;;;;;;30.20;20.48;;;;;;;;;;5053219;28;20017;-56
2021/11/21 09:36:52;;;;;;;40.17;23.60;;;;;;;;;;5053095;28;20021;-57
2021/11/21 09:39:18;;;;;;;46.72;22.67;;;;;;;;;;5053061;28;20025;-57
2021/11/21 09:41:45;;;;;;;54.72;29.10;;;;;;;;;;5052999;28;20366;-53
2021/11/21 09:44:11;;;;;;;22.08;18.15;;;;;;;;;;5053046;28;20020;-58
2021/11/21 09:46:38;;;;;;;24.65;16.98;;;;;;;;;;5051998;28;20104;-57
2021/11/21 09:49:04;;;;;;;30.33;19.98;;;;;;;;;;5052677;28;20017;-57
2021/11/21 09:51:30;;;;;;;25.30;19.55;;;;;;;;;;5052577;28;20102;-53
2021/11/21 09:53:59;;;;;;;24.20;18.73;;;;;;;;;;5052780;28;20029;-56
2021/11/21 09:56:25;;;;;;;25.35;18.45;;;;;;;;;;5053037;28;20074;-56
2021/11/21 09:58:51;;;;;;;25.65;18.88;;;;;;;;;;5056715;28;20035;-53
2021/11/21 10:01:32;;;;;;;24.05;19.02;;;;;;;;;;5057094;28;20021;-56
2021/11/21 10:04:00;;;;;;;31.42;22.92;;;;;;;;;;5056798;28;20025;-57
2021/11/21 10:06:30;;;;;;;29.83;19.67;;;;;;;;;;5056454;28;20021;-58
2021/11/21 10:08:56;;;;;;;30.73;20.00;;;;;;;;;;5056901;28;20021;-57
2021/11/21 10:11:24;;;;;;;29.00;20.35;;;;;;;;;;5056547;28;20111;-57
2021/11/21 10:13:54;;;;;;;29.48;20.63;;;;;;;;;;5056463;28;20025;-57
2021/11/21 10:16:28;;;;;;;28.35;19.13;;;;;;;;;;5056754;28;20033;-57
2021/11/21 10:18:56;;;;;;;39.00;21.10;;;;;;;;;;5056450;28;20027;-58
2021/11/21 10:21:27;;;;;;;33.15;21.60;;;;;;;;;;5056855;28;20058;-58
2021/11/21 10:24:12;;;;;;;25.00;18.50;;;;;;;;;;5056647;28;20044;-58
2021/11/21 10:26:38;;;;;;;28.98;19.58;;;;;;;;;;5056392;28;20660;-58
2021/11/21 10:29:23;;;;;;;25.30;18.75;;;;;;;;;;5056440;28;20029;-53
2021/11/21 10:31:49;;;;;;;28.00;20.30;;;;;;;;;;5056246;28;20041;-58
2021/11/21 10:34:18;;;;;;;24.40;18.58;;;;;;;;;;5056542;28;20100;-58
2021/11/21 10:36:44;;;;;;;27.75;19.70;;;;;;;;;;5056392;28;20059;-58
2021/11/21 10:39:10;;;;;;;26.85;19.23;;;;;;;;;;5056243;28;20071;-57
2021/11/21 10:41:44;;;;;;;25.00;17.92;;;;;;;;;;5056438;28;20021;-58
2021/11/21 10:44:12;;;;;;;28.02;19.92;;;;;;;;;;5055953;28;20065;-58
2021/11/21 10:46:45;;;;;;;24.27;17.55;;;;;;;;;;5056532;28;20115;-58
2021/11/21 10:49:16;;;;;;;23.35;17.83;;;;;;;;;;5056118;28;20039;-58
2021/11/21 10:51:43;;;;;;;24.07;16.47;;;;;;;;;;5055966;28;20052;-58
2021/11/21 10:54:18;;;;;;;21.88;16.60;;;;;;;;;;5055883;28;20473;-59
2021/11/21 10:56:54;;;;;;;26.17;19.17;;;;;;;;;;5055881;28;20028;-59
2021/11/21 10:59:47;;;;;;;21.67;17.55;;;;;;;;;;5056027;28;20045;-59
2021/11/21 11:02:18;;;;;;;21.40;16.42;;;;;;;;;;5055825;28;20057;-58
2021/11/21 11:04:57;;;;;;;22.43;15.47;;;;;;;;;;5055688;28;20021;-56
2021/11/21 11:07:23;;;;;;;27.20;19.58;;;;;;;;;;5055526;28;20029;-57
2021/11/21 11:09:51;;;;;;;25.45;17.35;;;;;;;;;;5054618;28;20036;-57
2021/11/21 11:12:17;;;;;;;20.45;16.08;;;;;;;;;;5055707;28;20057;-57
2021/11/21 11:14:44;;;;;;;24.52;17.95;;;;;;;;;;5055596;28;20036;-53
2021/11/21 11:17:10;;;;;;;24.05;17.00;;;;;;;;;;5055565;28;20029;-53
2021/11/21 11:19:36;;;;;;;26.27;18.42;;;;;;;;;;5055268;28;20031;-58
2021/11/21 11:22:04;;;;;;;26.58;18.45;;;;;;;;;;5055214;28;20035;-52
2021/11/21 11:24:30;;;;;;;23.58;17.33;;;;;;;;;;5055480;28;20021;-60
2021/11/21 11:27:02;;;;;;;19.65;13.88;;;;;;;;;;5055309;28;20100;-58
2021/11/21 11:29:31;;;;;;;19.00;13.05;;;;;;;;;;5055552;28;20373;-58
2021/11/21 11:32:16;;;;;;;20.83;13.52;;;;;;;;;;5054966;28;20025;-57
2021/11/21 11:34:42;;;;;;;20.35;15.13;;;;;;;;;;5054820;28;20033;-56
2021/11/21 11:37:13;;;;;;;24.58;16.17;;;;;;;;;;5055289;28;20025;-58
2021/11/21 11:39:43;;;;;;;18.85;14.32;;;;;;;;;;5054973;28;20399;-56
2021/11/21 11:42:28;;;;;;;22.48;16.52;;;;;;;;;;5055032;28;20101;-59
2021/11/21 11:44:55;;;;;;;19.13;14.65;;;;;;;;;;5054758;28;20032;-55
2021/11/21 11:47:28;;;;;;;18.55;14.05;;;;;;;;;;5054727;28;20087;-56
2021/11/21 11:49:55;;;;;;;19.83;14.20;;;;;;;;;;5054670;28;20090;-57
2021/11/21 11:52:40;;;;;;;20.05;14.98;;;;;;;;;;5054634;28;20049;-56
2021/11/21 11:55:07;;;;;;;17.85;14.07;;;;;;;;;;5054969;28;20035;-60
2021/11/21 11:57:37;;;;;;;20.85;15.65;;;;;;;;;;5054609;28;20037;-52
2021/11/21 12:00:30;;;;;;;18.83;14.43;;;;;;;;;;5054604;28;20029;-52
2021/11/21 12:02:59;;;;;;;17.65;13.05;;;;;;;;;;5053337;28;20615;-58
2021/11/21 12:05:33;;;;;;;22.27;14.43;;;;;;;;;;5054282;28;20028;-56
2021/11/21 12:08:18;;;;;;;18.27;14.18;;;;;;;;;;5054581;28;20504;-58
2021/11/21 12:10:51;;;;;;;25.85;15.63;;;;;;;;;;5054224;28;20040;-57
2021/11/21 12:13:27;;;;;;;20.77;15.05;;;;;;;;;;5054810;28;20017;-58
2021/11/21 12:15:55;;;;;;;21.17;16.35;;;;;;;;;;5054824;28;20083;-56
2021/11/21 12:18:22;;;;;;;23.77;16.30;;;;;;;;;;5054394;28;20055;-58
2021/11/21 12:20:53;;;;;;;22.85;16.63;;;;;;;;;;5053798;28;20071;-58
2021/11/21 12:23:39;;;;;;;21.60;15.95;;;;;;;;;;5052980;28;20033;-58
2021/11/21 12:26:23;;;;;;;25.48;16.67;;;;;;;;;;5054480;28;20450;-57
2021/11/21 12:28:57;;;;;;;23.08;17.25;;;;;;;;;;5054172;28;20468;-58
2021/11/21 12:31:34;;;;;;;23.38;16.13;;;;;;;;;;5053923;28;20044;-57
2021/11/21 12:34:18;;;;;;;35.28;16.70;;;;;;;;;;5053963;28;20020;-59
2021/11/21 12:37:06;;;;;;;21.65;15.70;;;;;;;;;;5054064;28;20396;-52
2021/11/21 12:39:33;;;;;;;27.27;19.20;;;;;;;;;;5053983;28;20094;-59
2021/11/21 12:42:09;;;;;;;21.17;15.60;;;;;;;;;;5054349;28;20025;-59
2021/11/21 12:44:35;;;;;;;23.17;15.63;;;;;;;;;;5053877;28;20021;-52
2021/11/21 12:47:01;;;;;;;21.40;15.88;;;;;;;;;;5053999;28;20025;-58
2021/11/21 12:49:30;;;;;;;24.80;16.70;;;;;;;;;;5053642;28;20096;-58
2021/11/21 12:52:02;;;;;;;21.58;15.40;;;;;;;;;;5053502;28;20044;-59
2021/11/21 12:54:28;;;;;;;22.85;15.73;;;;;;;;;;5053450;28;20071;-59
2021/11/21 12:56:57;;;;;;;25.35;16.77;;;;;;;;;;5053598;28;20020;-56
2021/11/21 12:59:43;;;;;;;19.88;15.07;;;;;;;;;;5053594;28;20032;-59
2021/11/21 13:02:12;;;;;;;24.23;16.27;;;;;;;;;;5053708;28;20100;-58
2021/11/21 13:04:48;;;;;;;23.90;16.30;;;;;;;;;;5035667;28;20029;-58
2021/11/21 13:07:33;;;;;;;21.67;15.05;;;;;;;;;;5053408;28;20354;-58
2021/11/21 13:09:59;;;;;;;21.52;15.68;;;;;;;;;;5053684;28;20078;-58
2021/11/21 13:12:26;;;;;;;24.10;15.05;;;;;;;;;;5052140;28;20384;-58
2021/11/21 13:15:18;;;;;;;25.95;15.95;;;;;;;;;;5053481;28;20021;-59
2021/11/21 13:17:45;;;;;;;21.83;14.98;;;;;;;;;;5031265;28;20489;-58
2021/11/21 13:20:18;;;;;;;20.90;15.55;;;;;;;;;;5031251;28;20418;-54
2021/11/21 13:22:47;;;;;;;23.88;16.20;;;;;;;;;;5031308;28;20397;-59
2021/11/21 13:25:30;;;;;;;30.17;15.30;;;;;;;;;;5031432;28;20450;-59
2021/11/21 13:28:14;;;;;;;20.98;13.70;;;;;;;;;;5031400;28;20022;-57
2021/11/21 13:30:40;;;;;;;18.83;14.23;;;;;;;;;;5031120;28;20482;-55
2021/11/21 13:33:17;;;;;;;19.00;14.00;;;;;;;;;;5030390;28;20512;-54
2021/11/21 13:35:43;;;;;;;19.23;13.95;;;;;;;;;;5031008;28;20029;-58
2021/11/21 13:38:10;;;;;;;21.20;14.25;;;;;;;;;;5031238;28;20104;-57
2021/11/21 13:40:37;;;;;;;19.75;13.63;;;;;;;;;;5031106;28;20030;-57
2021/11/21 13:43:07;;;;;;;20.20;14.52;;;;;;;;;;5031030;28;20036;-56
2021/11/21 13:45:34;;;;;;;23.50;15.73;;;;;;;;;;5031054;28;20080;-52
2021/11/21 13:48:03;;;;;;;28.60;20.05;;;;;;;;;;5030944;28;20033;-54
2021/11/21 13:50:30;;;;;;;23.13;16.08;;;;;;;;;;5029971;28;20041;-52
2021/11/21 13:52:57;;;;;;;21.50;16.30;;;;;;;;;;5013302;28;20076;-60
2021/11/21 13:55:26;;;;;;;23.65;16.98;;;;;;;;;;5047090;28;20031;-57
2021/11/21 13:57:56;;;;;;;21.55;15.13;;;;;;;;;;5052433;28;20017;-54
2021/11/21 14:00:29;;;;;;;20.15;15.15;;;;;;;;;;5052154;28;20350;-54
2021/11/21 14:03:01;;;;;;;25.08;16.95;;;;;;;;;;5052193;28;20032;-56
2021/11/21 14:05:29;;;;;;;25.50;16.58;;;;;;;;;;5049566;28;20017;-56
2021/11/21 14:08:02;;;;;;;27.92;18.77;;;;;;;;;;5052385;28;20112;-55
2021/11/21 14:10:31;;;;;;;24.38;16.35;;;;;;;;;;5049547;28;20021;-58
2021/11/21 14:13:20;;;;;;;25.80;16.92;;;;;;;;;;5052199;28;20021;-53
2021/11/21 14:15:50;;;;;;;27.23;17.83;;;;;;;;;;5051779;28;20021;-54
2021/11/21 14:18:16;;;;;;;30.15;19.15;;;;;;;;;;5052125;28;20021;-54
2021/11/21 14:20:50;;;;;;;27.92;18.92;;;;;;;;;;5051785;28;20029;-53
2021/11/21 14:23:24;;;;;;;36.40;22.88;;;;;;;;;;5050606;28;20040;-53